Time;durP1;ratioP1;P1;durP2;ratioP2;P2;SDS_P1;SDS_P2;PMS_P1;PMS_P2;Temp;Humidity;BMP_temperature;BMP_pressure;BME280_temperature;BME280_humidity;BME280_pressure;Samples;Min_cycle;Max_cycle;Signal;HPM_P1;HPM_P2
2023/08/09 00:01:49;;;;;;;6.30;4.20;;;;;;;26.58;45.08;100070.62;108110;1254;60289;-70
2023/08/09 00:04:15;;;;;;;7.80;4.20;;;;;;;26.75;44.65;100066.04;108158;1254;60450;-70
2023/08/09 00:06:42;;;;;;;3.90;3.10;;;;;;;26.74;44.58;100062.08;108086;1257;60442;-69
2023/08/09 00:09:08;;;;;;;8.50;4.50;;;;;;;26.60;44.82;100063.95;108079;1254;61899;-70
2023/08/09 00:11:35;;;;;;;10.50;4.60;;;;;;;26.49;45.00;100059.52;108128;1254;60431;-70
2023/08/09 00:14:02;;;;;;;6.10;4.20;;;;;;;26.41;45.22;100068.25;108091;1257;74268;-70
2023/08/09 00:16:29;;;;;;;5.70;4.40;;;;;;;26.49;45.13;100070.48;108048;1254;68718;-70
2023/08/09 00:18:56;;;;;;;5.90;4.70;;;;;;;26.56;44.96;100072.70;108072;1254;72366;-70
2023/08/09 00:21:22;;;;;;;6.60;4.20;;;;;;;26.49;45.02;100072.44;107966;1254;60334;-71
2023/08/09 00:23:48;;;;;;;4.70;4.10;;;;;;;26.46;44.85;100071.73;107994;1254;60423;-71
2023/08/09 00:26:15;;;;;;;6.60;4.50;;;;;;;26.30;44.96;100075.16;108210;1257;73916;-69
2023/08/09 00:28:42;;;;;;;7.30;4.70;;;;;;;26.18;45.20;100074.84;108153;1254;70810;-69
2023/08/09 00:31:08;;;;;;;4.20;3.80;;;;;;;26.24;44.92;100072.42;108068;1254;73854;-69
2023/08/09 00:33:35;;;;;;;6.20;4.40;;;;;;;26.20;44.79;100076.76;108148;1254;62375;-70
2023/08/09 00:36:02;;;;;;;8.20;4.70;;;;;;;26.17;44.68;100071.69;108244;1253;60370;-70
2023/08/09 00:38:29;;;;;;;4.90;4.00;;;;;;;26.31;44.29;100074.19;108078;1253;74301;-69
2023/08/09 00:40:55;;;;;;;8.40;4.30;;;;;;;26.20;44.57;100076.23;108181;1254;70167;-70
2023/08/09 00:43:22;;;;;;;5.50;4.30;;;;;;;26.48;44.04;100076.14;108228;1254;73242;-71
2023/08/09 00:45:49;;;;;;;7.40;4.40;;;;;;;26.55;43.94;100079.06;108259;1253;61987;-68
2023/08/09 00:48:15;;;;;;;7.90;4.60;;;;;;;26.52;44.05;100077.39;108272;1254;58978;-69
2023/08/09 00:50:44;;;;;;;4.50;3.80;;;;;;;26.49;44.10;100077.20;108190;1254;74404;-70
2023/08/09 00:53:11;;;;;;;9.70;5.40;;;;;;;26.42;44.12;100081.72;108117;1254;70158;-69
2023/08/09 00:55:38;;;;;;;7.20;4.60;;;;;;;26.47;43.84;100081.28;108110;1258;72451;-69
2023/08/09 00:58:05;;;;;;;5.80;3.90;;;;;;;26.39;43.80;100078.25;108098;1253;60641;-69
2023/08/09 01:00:31;;;;;;;8.40;4.90;;;;;;;26.44;43.66;100078.21;108131;1254;60477;-70
2023/08/09 01:02:58;;;;;;;11.30;4.70;;;;;;;26.36;43.81;100082.29;108135;1257;72352;-67
2023/08/09 01:05:29;;;;;;;10.00;4.80;;;;;;;26.36;43.86;100087.66;108137;1254;70899;-70
2023/08/09 01:08:40;;;;;;;10.90;5.20;;;;;;;26.33;43.75;100086.45;107988;1254;72454;-69
2023/08/09 01:11:16;;;;;;;6.90;4.50;;;;;;;26.20;44.02;100094.44;108162;1253;60453;-71
2023/08/09 01:13:44;;;;;;;8.80;5.30;;;;;;;25.55;45.20;100099.89;108217;1254;60175;-70
2023/08/09 01:16:10;;;;;;;8.90;5.50;;;;;;;25.37;45.61;100101.51;108176;1253;73285;-70
2023/08/09 01:18:40;;;;;;;6.70;5.00;;;;;;;25.38;45.56;100104.52;108195;1253;69524;-71
2023/08/09 01:21:07;;;;;;;9.80;5.50;;;;;;;25.41;45.48;100110.28;108190;1254;72484;-70
2023/08/09 01:23:37;;;;;;;7.80;5.00;;;;;;;25.41;45.46;100112.63;107960;1259;59236;-70
2023/08/09 01:26:04;;;;;;;9.40;5.10;;;;;;;25.45;45.38;100108.59;108040;1253;60491;-70
2023/08/09 01:28:31;;;;;;;11.80;5.80;;;;;;;25.58;45.18;100113.44;108063;1257;73977;-70
2023/08/09 01:30:57;;;;;;;7.10;4.70;;;;;;;25.41;45.59;100112.77;108083;1254;68779;-69
2023/08/09 01:33:25;;;;;;;8.00;5.50;;;;;;;25.32;45.81;100120.36;107946;1257;60405;-71
2023/08/09 01:36:24;;;;;;;10.60;6.20;;;;;;;25.29;45.80;100118.51;108012;1253;61774;-70
2023/08/09 01:38:57;;;;;;;6.80;5.00;;;;;;;25.12;45.98;100124.05;108049;1254;60302;-69
2023/08/09 01:41:23;;;;;;;9.90;6.10;;;;;;;25.11;45.93;100128.35;108054;1254;72978;-70
2023/08/09 01:43:50;;;;;;;9.80;5.80;;;;;;;25.17;45.73;100127.86;107991;1254;68714;-69
2023/08/09 01:46:17;;;;;;;7.00;5.20;;;;;;;25.13;45.70;100130.98;107978;1254;72429;-68
2023/08/09 01:48:44;;;;;;;7.80;5.60;;;;;;;25.23;45.53;100129.33;108087;1254;62322;-70
2023/08/09 01:51:10;;;;;;;6.80;5.30;;;;;;;25.35;45.32;100129.02;108043;1253;60329;-71
2023/08/09 01:53:37;;;;;;;10.40;5.80;;;;;;;25.07;45.60;100131.89;108078;1254;73981;-71
2023/08/09 01:56:04;;;;;;;10.70;5.40;;;;;;;24.60;46.56;100134.48;108034;1254;68895;-70
2023/08/09 01:58:30;;;;;;;5.90;5.20;;;;;;;24.44;46.76;100136.14;108106;1253;72738;-71
2023/08/09 02:00:57;;;;;;;10.00;5.90;;;;;;;24.34;46.88;100140.75;108001;1254;61297;-70
2023/08/09 02:03:25;;;;;;;6.80;5.20;;;;;;;24.54;46.52;100141.72;108125;1253;60465;-69
2023/08/09 02:05:52;;;;;;;9.80;5.50;;;;;;;24.88;45.93;100138.84;108043;1254;72914;-71
2023/08/09 02:08:19;;;;;;;11.80;5.60;;;;;;;25.03;45.62;100142.37;108035;1253;70949;-68
2023/08/09 02:10:46;;;;;;;10.90;5.60;;;;;;;24.92;45.71;100144.55;108014;1254;60329;-69
2023/08/09 02:13:13;;;;;;;10.00;5.70;;;;;;;24.89;45.77;100141.79;108070;1253;60547;-70
2023/08/09 02:15:40;;;;;;;10.00;5.60;;;;;;;24.47;46.30;100149.77;108154;1254;60085;-70
2023/08/09 02:18:12;;;;;;;9.40;5.80;;;;;;;24.34;46.72;100145.94;108131;1253;73186;-70
2023/08/09 02:20:38;;;;;;;7.80;6.00;;;;;;;24.37;46.72;100148.71;108065;1253;70203;-70
2023/08/09 02:23:05;;;;;;;8.30;6.00;;;;;;;24.46;46.46;100152.45;108079;1253;72077;-70
2023/08/09 02:25:32;;;;;;;11.00;6.30;;;;;;;24.48;46.38;100152.86;108202;1257;60877;-71
2023/08/09 02:27:58;;;;;;;8.50;6.50;;;;;;;24.65;46.03;100152.88;108155;1253;60601;-70
2023/08/09 02:30:28;;;;;;;7.30;5.40;;;;;;;24.67;45.82;100157.17;108291;1254;73775;-70
2023/08/09 02:32:54;;;;;;;9.50;7.10;;;;;;;24.59;46.02;100162.80;108103;1254;70081;-70
2023/08/09 02:35:22;;;;;;;14.00;7.00;;;;;;;24.55;45.99;100161.34;108249;1253;72490;-69
2023/08/09 02:37:49;;;;;;;8.70;5.90;;;;;;;24.34;46.46;100163.14;108184;1253;60739;-69
2023/08/09 02:40:18;;;;;;;8.80;6.30;;;;;;;24.39;46.26;100165.14;108136;1254;60440;-70
2023/08/09 02:42:45;;;;;;;10.50;6.50;;;;;;;24.29;46.39;100166.08;108106;1252;73565;-70
2023/08/09 02:45:11;;;;;;;13.60;6.70;;;;;;;24.14;46.84;100170.27;108183;1254;70129;-70
2023/08/09 02:47:38;;;;;;;7.10;5.90;;;;;;;24.17;46.53;100174.63;108110;1256;73268;-69
2023/08/09 02:50:06;;;;;;;9.00;6.00;;;;;;;24.03;46.81;100180.93;108122;1253;61971;-71
2023/08/09 02:52:33;;;;;;;11.50;6.60;;;;;;;23.95;46.79;100176.31;108140;1254;60437;-70
2023/08/09 02:54:59;;;;;;;11.00;6.50;;;;;;;24.04;46.87;100180.47;108131;1253;73637;-70
2023/08/09 02:57:26;;;;;;;11.00;6.90;;;;;;;23.97;47.19;100182.58;108259;1253;60432;-69
2023/08/09 02:59:53;;;;;;;9.50;6.60;;;;;;;24.13;46.95;100178.04;108022;1257;73022;-71
2023/08/09 03:02:20;;;;;;;7.70;6.50;;;;;;;24.17;46.99;100178.77;108209;1253;61814;-71
2023/08/09 03:04:46;;;;;;;13.00;7.00;;;;;;;24.23;46.88;100179.64;108221;1253;60709;-68
2023/08/09 03:07:13;;;;;;;9.30;6.10;;;;;;;24.35;46.67;100181.04;108175;1254;74755;-71
2023/08/09 03:09:40;;;;;;;11.50;7.00;;;;;;;24.47;46.57;100185.08;108097;1253;70276;-69
2023/08/09 03:12:07;;;;;;;14.70;7.00;;;;;;;24.55;46.46;100189.48;108071;1254;71130;-71
2023/08/09 03:14:34;;;;;;;8.40;6.40;;;;;;;24.82;46.05;100197.73;108051;1253;60384;-69
2023/08/09 03:17:00;;;;;;;14.40;7.50;;;;;;;24.76;46.41;100195.84;108172;1253;60197;-70
2023/08/09 03:19:27;;;;;;;10.20;7.00;;;;;;;24.59;46.99;100194.41;108057;1254;73658;-69
2023/08/09 03:21:54;;;;;;;10.30;7.40;;;;;;;24.55;47.40;100194.02;108214;1254;70700;-70
2023/08/09 03:24:21;;;;;;;12.20;7.30;;;;;;;24.54;47.69;100191.45;108060;1254;73276;-69
2023/08/09 03:26:47;;;;;;;14.30;7.70;;;;;;;24.70;47.86;100194.55;108130;1254;62069;-70
2023/08/09 03:29:16;;;;;;;10.50;5.90;;;;;;;25.11;47.83;100191.88;108079;1254;60374;-70
2023/08/09 03:31:43;;;;;;;10.10;5.90;;;;;;;25.89;47.14;100193.06;108088;1253;73385;-70
2023/08/09 03:34:11;;;;;;;9.30;5.40;;;;;;;26.39;46.85;100191.92;108081;1253;69970;-71
2023/08/09 03:36:38;;;;;;;6.90;4.90;;;;;;;26.68;46.64;100191.15;108072;1254;72645;-70
2023/08/09 03:39:06;;;;;;;9.00;4.50;;;;;;;27.28;45.55;100190.63;108015;1253;61892;-71
2023/08/09 03:41:32;;;;;;;7.40;4.40;;;;;;;27.86;44.25;100189.34;108092;1253;60403;-70
2023/08/09 03:43:59;;;;;;;6.10;4.30;;;;;;;28.29;43.45;100187.27;108117;1253;73642;-69
2023/08/09 03:46:25;;;;;;;6.10;3.50;;;;;;;28.79;42.37;100190.25;107942;1253;70196;-68
2023/08/09 03:48:52;;;;;;;8.10;3.60;;;;;;;28.94;42.06;100194.84;108051;1254;60560;-69
2023/08/09 03:51:19;;;;;;;5.00;3.90;;;;;;;29.20;41.66;100200.06;108099;1254;62305;-70
2023/08/09 03:53:46;;;;;;;7.70;3.90;;;;;;;29.68;40.66;100204.74;108116;1254;60329;-70
2023/08/09 03:56:13;;;;;;;6.50;3.70;;;;;;;30.10;39.96;100210.91;108193;1253;74717;-70
2023/08/09 03:58:40;;;;;;;10.50;3.50;;;;;;;30.53;39.17;100214.04;108044;1254;69934;-69
2023/08/09 04:01:06;;;;;;;7.30;3.50;;;;;;;30.93;38.46;100215.55;108020;1253;72484;-70
2023/08/09 04:03:33;;;;;;;8.10;3.40;;;;;;;31.15;37.75;100217.29;108035;1253;61841;-71
2023/08/09 04:05:59;;;;;;;6.10;3.20;;;;;;;31.23;37.68;100221.14;108004;1253;59158;-69
2023/08/09 04:08:27;;;;;;;5.60;3.00;;;;;;;31.38;37.56;100223.02;108010;1257;73752;-71
2023/08/09 04:10:56;;;;;;;4.50;2.90;;;;;;;31.79;36.77;100218.70;108063;1253;70300;-71
2023/08/09 04:13:23;;;;;;;7.30;3.30;;;;;;;32.00;36.49;100220.29;108047;1253;73093;-70
2023/08/09 04:15:49;;;;;;;9.30;3.30;;;;;;;32.13;35.95;100220.54;108022;1253;60424;-71
2023/08/09 04:18:16;;;;;;;4.70;2.90;;;;;;;32.30;35.67;100225.68;108054;1253;60478;-71
2023/08/09 04:20:43;;;;;;;9.30;3.00;;;;;;;32.59;35.35;100226.76;108049;1253;72318;-69
2023/08/09 04:23:10;;;;;;;5.50;3.30;;;;;;;33.21;34.20;100234.62;108109;1254;70452;-70
2023/08/09 04:25:36;;;;;;;6.20;3.30;;;;;;;33.82;33.53;100236.00;108213;1253;60415;-70
2023/08/09 04:28:03;;;;;;;7.50;3.20;;;;;;;33.78;33.40;100236.42;108165;1254;60402;-71
2023/08/09 04:30:32;;;;;;;3.60;2.60;;;;;;;34.02;33.07;100236.62;108164;1254;60160;-71
2023/08/09 04:33:03;;;;;;;4.60;2.90;;;;;;;34.36;32.43;100235.86;108171;1257;68008;-70
2023/08/09 04:35:31;;;;;;;6.80;2.80;;;;;;;34.63;31.86;100233.46;108306;1253;60376;-70
2023/08/09 04:37:57;;;;;;;4.20;2.70;;;;;;;34.74;31.64;100238.56;108206;1254;64015;-69
2023/08/09 04:40:25;;;;;;;4.40;2.80;;;;;;;34.67;31.73;100242.38;108063;1253;59157;-70
2023/08/09 04:42:51;;;;;;;5.50;2.40;;;;;;;34.94;31.23;100241.46;108181;1256;60257;-71
2023/08/09 04:45:18;;;;;;;6.70;3.00;;;;;;;35.38;30.73;100246.38;108082;1254;65573;-67
2023/08/09 04:47:44;;;;;;;6.80;2.90;;;;;;;35.49;30.47;100245.20;108108;1253;60242;-68
2023/08/09 04:50:12;;;;;;;4.10;2.50;;;;;;;35.66;29.85;100245.71;108068;1253;63832;-71
2023/08/09 04:52:38;;;;;;;6.30;2.70;;;;;;;35.76;29.78;100243.05;107991;1256;60230;-70
2023/08/09 04:55:06;;;;;;;8.70;2.80;;;;;;;35.89;29.67;100242.15;108042;1254;60335;-70
2023/08/09 04:57:32;;;;;;;5.20;2.20;;;;;;;35.99;29.19;100237.94;108112;1253;63772;-70
2023/08/09 05:02:35;;;;;;;2.30;2.00;;;;;;;33.88;31.92;100246.51;104976;1290;601113;-69
2023/08/09 05:05:04;;;;;;;3.30;2.50;;;;;;;35.36;30.04;100245.98;107309;1266;59133;-70
2023/08/09 05:07:33;;;;;;;4.30;2.40;;;;;;;35.73;29.26;100249.69;107378;1264;59273;-71
2023/08/09 05:10:01;;;;;;;4.30;2.00;;;;;;;35.89;28.91;100254.58;107306;1263;63322;-71
2023/08/09 05:12:28;;;;;;;4.80;2.30;;;;;;;35.99;28.61;100254.94;107311;1264;61462;-70
2023/08/09 05:14:57;;;;;;;6.90;2.60;;;;;;;36.36;28.18;100257.73;107307;1264;62458;-71
2023/08/09 05:17:24;;;;;;;5.10;2.50;;;;;;;36.55;27.59;100261.64;107344;1263;60385;-70
2023/08/09 05:19:52;;;;;;;6.70;2.20;;;;;;;36.84;27.27;100263.17;107508;1263;58919;-71
2023/08/09 05:22:19;;;;;;;3.30;2.00;;;;;;;37.01;26.76;100263.46;107512;1262;63326;-70
2023/08/09 05:24:47;;;;;;;4.00;2.50;;;;;;;37.19;26.18;100259.60;107481;1263;61351;-70
2023/08/09 05:27:14;;;;;;;6.40;2.30;;;;;;;37.11;25.82;100256.44;107454;1263;63762;-70
2023/08/09 05:29:42;;;;;;;4.30;2.40;;;;;;;37.18;25.69;100254.70;107403;1262;59627;-70
2023/08/09 05:32:09;;;;;;;3.20;2.10;;;;;;;37.33;25.69;100253.81;107446;1263;59413;-69
2023/08/09 05:34:37;;;;;;;4.20;1.90;;;;;;;37.58;25.23;100256.64;107464;1262;63058;-70
2023/08/09 05:37:04;;;;;;;3.80;2.00;;;;;;;37.84;24.86;100263.84;107434;1263;60160;-71
2023/08/09 05:39:31;;;;;;;2.90;2.00;;;;;;;37.86;24.90;100267.91;107385;1263;62696;-70
2023/08/09 05:41:59;;;;;;;4.80;2.00;;;;;;;38.10;24.71;100271.56;107407;1263;59543;-69
2023/08/09 05:44:26;;;;;;;2.70;1.90;;;;;;;38.32;24.43;100270.13;107390;1263;59378;-71
2023/08/09 05:46:54;;;;;;;4.70;1.90;;;;;;;38.47;24.02;100264.98;107390;1264;64077;-70
2023/08/09 05:49:21;;;;;;;5.00;2.10;;;;;;;38.43;23.76;100264.70;107379;1264;61431;-71
2023/08/09 05:51:49;;;;;;;5.40;2.00;;;;;;;38.36;23.66;100269.25;107945;1257;62486;-70
2023/08/09 05:54:16;;;;;;;4.00;2.00;;;;;;;38.52;23.62;100268.68;107945;1256;59192;-71
2023/08/09 05:56:43;;;;;;;5.20;2.10;;;;;;;38.73;23.41;100271.98;108031;1257;59166;-71
2023/08/09 05:59:11;;;;;;;5.40;1.70;;;;;;;38.80;23.16;100273.53;107970;1256;62894;-72
2023/08/09 06:01:38;;;;;;;4.60;2.10;;;;;;;38.75;22.86;100285.76;107974;1260;60114;-71
2023/08/09 06:04:06;;;;;;;4.80;1.80;;;;;;;38.85;22.76;100289.21;107969;1256;62511;-70
2023/08/09 06:06:33;;;;;;;6.70;2.30;;;;;;;39.08;22.45;100286.48;107941;1257;59526;-71
2023/08/09 06:09:00;;;;;;;2.30;1.60;;;;;;;39.33;22.34;100285.21;107962;1257;59532;-73
2023/08/09 06:11:28;;;;;;;3.90;1.80;;;;;;;39.28;21.85;100283.98;107962;1257;64226;-72
2023/08/09 06:13:55;;;;;;;6.00;2.10;;;;;;;39.12;21.60;100287.10;107868;1256;60186;-70
2023/08/09 06:16:23;;;;;;;3.60;1.90;;;;;;;39.01;22.20;100289.52;107872;1257;63737;-71
2023/08/09 06:18:50;;;;;;;4.70;1.80;;;;;;;39.15;22.19;100286.24;107875;1257;59124;-71
2023/08/09 06:21:17;;;;;;;5.70;2.00;;;;;;;39.53;22.02;100285.88;107876;1256;59612;-72
2023/08/09 06:23:45;;;;;;;3.70;1.90;;;;;;;39.60;21.34;100280.67;107945;1257;64317;-70
2023/08/09 06:26:12;;;;;;;3.40;1.70;;;;;;;39.73;21.01;100279.89;107845;1257;60336;-72
2023/08/09 06:28:40;;;;;;;7.20;1.80;;;;;;;39.85;20.83;100281.23;107827;1256;64305;-71
2023/08/09 06:31:08;;;;;;;3.50;2.10;;;;;;;39.87;20.38;100283.44;107822;1256;59482;-70
2023/08/09 06:33:41;;;;;;;9.40;1.80;;;;;;;39.86;19.95;100291.13;107761;1256;59122;-71
2023/08/09 06:36:11;;;;;;;5.00;2.10;;;;;;;39.57;19.85;100293.50;107751;1258;62868;-72
2023/08/09 06:38:39;;;;;;;;;;;;;;;39.42;19.88;100295.60;107842;1257;60107;-71
2023/08/09 06:41:06;;;;;;;6.90;1.60;;;;;;;39.60;20.17;100296.80;107756;1257;63705;-70
2023/08/09 06:43:33;;;;;;;5.10;1.80;;;;;;;39.31;20.22;100296.29;107869;1257;59733;-72
2023/08/09 06:46:01;;;;;;;5.00;1.80;;;;;;;39.12;20.30;100292.85;107882;1257;59705;-73
2023/08/09 06:48:29;;;;;;;4.00;1.60;;;;;;;39.25;20.05;100290.82;107889;1257;62842;-71
2023/08/09 06:50:57;;;;;;;2.70;1.50;;;;;;;39.47;19.91;100288.29;107817;1257;61374;-71
2023/08/09 06:53:25;;;;;;;3.80;1.90;;;;;;;39.68;19.29;100289.15;107878;1255;63769;-72
2023/08/09 06:55:52;;;;;;;4.20;1.60;;;;;;;39.68;19.80;100287.54;107941;1257;59429;-72
2023/08/09 06:58:20;;;;;;;4.30;1.70;;;;;;;39.38;19.74;100290.11;107865;1256;59516;-70
2023/08/09 07:00:47;;;;;;;4.10;1.40;;;;;;;39.12;19.78;100284.93;107851;1256;64207;-72
2023/08/09 07:03:15;;;;;;;2.80;1.50;;;;;;;39.57;19.41;100286.38;107942;1259;61420;-72
2023/08/09 07:05:43;;;;;;;4.00;1.60;;;;;;;40.08;19.18;100285.80;107911;1257;62434;-72
2023/08/09 07:08:11;;;;;;;3.90;1.90;;;;;;;40.34;18.65;100287.38;107947;1257;59493;-71
2023/08/09 07:10:38;;;;;;;4.30;2.00;;;;;;;40.26;18.32;100284.48;107862;1256;59004;-71
2023/08/09 07:13:06;;;;;;;6.50;1.60;;;;;;;39.98;18.64;100281.69;107866;1256;64155;-72
2023/08/09 07:15:33;;;;;;;3.00;1.70;;;;;;;39.95;19.06;100281.92;107926;1257;61444;-71
2023/08/09 07:18:01;;;;;;;3.50;1.70;;;;;;;40.01;18.53;100283.14;107913;1257;62518;-72
2023/08/09 07:20:28;;;;;;;3.50;1.60;;;;;;;40.13;18.32;100284.56;107981;1257;59637;-72
2023/08/09 07:22:56;;;;;;;3.50;1.40;;;;;;;39.95;18.11;100283.46;107869;1255;59612;-71
2023/08/09 07:25:23;;;;;;;3.90;1.90;;;;;;;39.94;18.70;100282.63;107940;1256;63020;-73
2023/08/09 07:27:51;;;;;;;26.50;5.70;;;;;;;40.02;19.08;100286.08;108039;1256;60251;-73
2023/08/09 07:30:19;;;;;;;9.00;3.20;;;;;;;40.30;18.63;100285.88;107906;1257;62470;-73
2023/08/09 07:32:47;;;;;;;3.00;1.80;;;;;;;40.45;18.15;100288.18;107902;1257;59534;-72
2023/08/09 07:35:15;;;;;;;9.70;2.30;;;;;;;40.55;18.08;100287.69;107908;1257;59656;-72
2023/08/09 07:37:43;;;;;;;7.10;1.90;;;;;;;40.19;17.57;100292.18;107955;1257;64931;-73
2023/08/09 07:40:14;;;;;;;64.90;15.10;;;;;;;39.74;18.38;100298.24;107990;1256;60256;-72
2023/08/09 07:42:42;;;;;;;35.40;8.40;;;;;;;39.48;18.72;100303.02;107960;1257;62897;-73
2023/08/09 07:45:10;;;;;;;4.10;2.00;;;;;;;39.34;18.82;100303.63;107885;1256;59561;-75
2023/08/09 07:47:39;;;;;;;6.30;2.00;;;;;;;39.41;18.59;100303.15;108031;1258;59432;-71
2023/08/09 07:50:06;;;;;;;3.50;1.80;;;;;;;39.69;18.36;100301.30;107940;1257;64231;-71
2023/08/09 07:52:34;;;;;;;6.70;1.90;;;;;;;39.94;18.37;100297.56;107931;1256;61552;-71
2023/08/09 07:55:02;;;;;;;4.40;1.90;;;;;;;40.12;17.85;100304.45;107968;1255;63784;-74
2023/08/09 07:57:29;;;;;;;4.40;1.80;;;;;;;40.10;17.68;100304.60;107938;1256;59615;-72
2023/08/09 07:59:56;;;;;;;3.60;1.80;;;;;;;39.81;18.09;100308.65;108018;1257;59522;-73
2023/08/09 08:02:41;;;;;;;18.20;3.80;;;;;;;39.32;17.95;100308.88;107947;1258;64191;-73
2023/08/09 08:05:11;;;;;;;24.30;6.90;;;;;;;39.22;17.91;100305.80;107912;1257;61824;-71
2023/08/09 08:07:40;;;;;;;10.10;2.80;;;;;;;38.98;18.18;100314.34;107981;1257;62577;-70
2023/08/09 08:10:14;;;;;;;5.60;2.00;;;;;;;38.78;18.10;100313.45;107935;1257;59612;-72
2023/08/09 08:12:43;;;;;;;5.30;1.80;;;;;;;38.75;17.98;100309.36;107901;1256;59532;-73
2023/08/09 08:15:12;;;;;;;2.50;1.10;;;;;;;38.79;17.83;100306.55;107994;1255;62983;-73
2023/08/09 08:17:40;;;;;;;4.20;1.60;;;;;;;38.82;16.85;100306.52;107925;1256;61527;-70
2023/08/09 08:20:10;;;;;;;4.40;1.60;;;;;;;38.98;16.88;100307.52;108005;1256;63828;-71
2023/08/09 08:22:38;;;;;;;3.00;1.70;;;;;;;38.90;16.95;100312.39;107858;1257;59449;-72
2023/08/09 08:25:06;;;;;;;2.80;1.60;;;;;;;39.04;17.27;100310.73;107907;1257;59482;-71
2023/08/09 08:27:34;;;;;;;3.80;1.70;;;;;;;39.35;17.27;100311.20;107860;1256;64182;-71
2023/08/09 08:30:08;;;;;;;7.30;1.80;;;;;;;39.79;16.58;100312.04;108061;1256;61520;-72
2023/08/09 08:32:36;;;;;;;4.30;1.40;;;;;;;40.09;16.05;100308.64;108023;1256;62470;-72
2023/08/09 08:35:04;;;;;;;4.40;1.80;;;;;;;40.25;16.04;100308.34;107914;1257;59711;-72
2023/08/09 08:37:32;;;;;;;2.80;1.40;;;;;;;40.48;16.06;100310.36;107882;1259;60181;-72
2023/08/09 08:39:59;;;;;;;7.00;1.60;;;;;;;40.69;16.00;100314.21;107875;1257;64131;-71
2023/08/09 08:42:27;;;;;;;3.10;1.40;;;;;;;40.82;15.88;100315.48;108049;1254;61348;-72
2023/08/09 08:44:55;;;;;;;1.90;1.20;;;;;;;40.90;15.08;100317.02;108015;1254;63817;-73
2023/08/09 08:47:24;;;;;;;2.90;1.50;;;;;;;41.01;14.93;100319.23;107962;1256;59769;-71
2023/08/09 08:49:51;;;;;;;2.50;1.50;;;;;;;41.06;15.13;100318.08;108040;1257;59890;-71
2023/08/09 08:52:19;;;;;;;7.90;1.70;;;;;;;41.38;14.90;100313.69;107996;1253;64287;-72
2023/08/09 08:54:46;;;;;;;6.30;1.90;;;;;;;41.46;14.72;100317.61;107959;1260;60090;-71
2023/08/09 08:57:14;;;;;;;12.90;2.00;;;;;;;41.62;15.13;100318.27;107922;1254;63966;-70
2023/08/09 08:59:41;;;;;;;4.90;1.70;;;;;;;41.49;14.25;100315.92;108129;1254;59522;-70
2023/08/09 09:02:08;;;;;;;2.70;1.20;;;;;;;41.35;14.43;100315.47;108049;1253;59500;-71
2023/08/09 09:04:38;;;;;;;4.40;1.50;;;;;;;41.49;15.18;100317.21;108070;1253;63002;-71
2023/08/09 09:07:06;;;;;;;3.40;1.60;;;;;;;41.65;14.99;100313.20;108055;1254;61434;-72
2023/08/09 09:09:33;;;;;;;3.60;1.40;;;;;;;41.98;14.64;100315.70;108118;1254;63764;-71
2023/08/09 09:12:01;;;;;;;3.70;1.70;;;;;;;41.78;14.68;100315.26;107958;1254;60298;-72
2023/08/09 09:14:29;;;;;;;3.00;1.30;;;;;;;41.96;14.41;100320.98;108072;1254;60216;-71
2023/08/09 09:16:57;;;;;;;3.10;1.40;;;;;;;42.01;14.05;100314.70;108147;1254;63635;-72
2023/08/09 09:19:24;;;;;;;4.10;1.50;;;;;;;41.93;14.21;100315.11;107930;1261;61422;-73
2023/08/09 09:21:52;;;;;;;6.00;1.70;;;;;;;41.74;14.86;100312.17;108061;1254;62587;-73
2023/08/09 09:24:20;;;;;;;3.30;1.50;;;;;;;41.88;14.81;100317.92;107897;1254;60411;-72
2023/08/09 09:26:52;;;;;;;3.50;1.50;;;;;;;42.18;14.42;100324.55;108057;1254;60387;-72
2023/08/09 09:29:20;;;;;;;3.50;1.50;;;;;;;42.40;13.83;100329.42;108085;1254;64896;-71
2023/08/09 09:31:48;;;;;;;6.00;2.20;;;;;;;42.29;13.93;100325.04;108065;1254;60375;-72
2023/08/09 09:34:15;;;;;;;4.50;1.70;;;;;;;42.32;13.76;100324.80;108119;1254;63768;-71
2023/08/09 09:36:48;;;;;;;3.20;1.50;;;;;;;42.57;13.82;100322.98;108039;1254;60407;-72
2023/08/09 09:39:17;;;;;;;3.00;1.40;;;;;;;42.62;14.04;100317.77;108119;1254;60354;-70
2023/08/09 09:41:48;;;;;;;3.20;1.60;;;;;;;42.19;14.74;100314.77;108047;1254;63777;-69
2023/08/09 09:44:23;;;;;;;3.80;1.70;;;;;;;41.51;15.31;100315.89;108098;1254;61385;-72
2023/08/09 09:46:54;;;;;;;5.00;1.70;;;;;;;40.84;15.53;100316.92;108189;1253;65995;-72
2023/08/09 09:49:21;;;;;;;3.10;1.60;;;;;;;40.82;15.80;100312.76;108136;1258;60369;-72
2023/08/09 09:51:49;;;;;;;2.60;1.40;;;;;;;40.82;15.13;100308.44;107960;1254;60463;-72
2023/08/09 09:54:16;;;;;;;3.50;1.50;;;;;;;40.62;15.19;100316.48;108127;1254;64913;-71
2023/08/09 09:56:44;;;;;;;4.40;1.60;;;;;;;40.62;15.88;100316.56;107994;1254;61488;-72
2023/08/09 09:59:12;;;;;;;4.00;1.70;;;;;;;40.23;15.91;100320.50;107973;1254;63770;-73
2023/08/09 10:01:42;;;;;;;3.00;1.60;;;;;;;39.95;16.31;100316.94;108107;1254;60411;-71
2023/08/09 10:04:10;;;;;;;2.80;1.60;;;;;;;40.09;16.50;100313.13;108108;1254;60374;-71
2023/08/09 10:06:42;;;;;;;4.50;1.50;;;;;;;40.32;16.40;100309.65;108185;1254;65419;-72
2023/08/09 10:09:10;;;;;;;3.90;1.80;;;;;;;40.55;16.03;100311.20;108042;1252;61840;-73
2023/08/09 10:11:37;;;;;;;4.40;1.80;;;;;;;40.92;15.94;100304.13;108084;1254;63668;-73
2023/08/09 10:14:07;;;;;;;6.90;1.60;;;;;;;41.25;15.17;100304.07;107874;1261;60295;-73
2023/08/09 10:16:35;;;;;;;4.80;1.60;;;;;;;41.50;15.09;100306.93;108034;1254;60444;-74
2023/08/09 10:19:07;;;;;;;6.20;1.60;;;;;;;41.72;14.64;100301.30;108088;1254;64938;-74
2023/08/09 10:21:34;;;;;;;3.70;1.70;;;;;;;41.76;14.36;100304.84;108125;1253;61500;-74
2023/08/09 10:24:09;;;;;;;9.30;2.00;;;;;;;41.86;14.88;100306.12;108028;1254;64355;-74
2023/08/09 10:26:37;;;;;;;2.90;1.90;;;;;;;42.10;13.94;100305.45;108091;1252;60422;-74
2023/08/09 10:29:06;;;;;;;5.10;1.80;;;;;;;42.36;13.82;100304.60;108089;1254;60477;-73
2023/08/09 10:31:54;;;;;;;4.80;1.60;;;;;;;42.66;13.84;100301.75;108067;1254;64970;-74
2023/08/09 10:34:44;;;;;;;4.30;1.80;;;;;;;42.45;13.94;100302.89;108100;1254;61347;-73
2023/08/09 10:37:12;;;;;;;4.30;1.60;;;;;;;41.94;14.20;100302.81;107958;1254;62478;-74
2023/08/09 10:39:41;;;;;;;3.10;1.60;;;;;;;41.43;14.25;100298.39;107912;1254;60332;-74
2023/08/09 10:42:09;;;;;;;4.50;1.70;;;;;;;41.27;14.73;100292.05;108053;1254;60476;-74
2023/08/09 10:44:39;;;;;;;2.20;1.50;;;;;;;41.15;15.43;100289.49;108208;1254;64894;-73
2023/08/09 10:47:28;;;;;;;6.50;1.90;;;;;;;40.82;15.40;100290.33;108051;1254;61641;-73
2023/08/09 10:49:59;;;;;;;3.30;1.50;;;;;;;40.28;15.65;100291.61;108078;1254;62715;-73
2023/08/09 10:52:37;;;;;;;4.50;1.70;;;;;;;40.07;15.82;100293.08;108128;1254;60441;-74
2023/08/09 10:55:25;;;;;;;2.30;1.50;;;;;;;40.30;15.99;100292.83;108088;1253;60378;-74
2023/08/09 10:57:53;;;;;;;3.50;1.60;;;;;;;40.69;15.76;100291.11;108210;1254;64935;-74
2023/08/09 11:00:22;;;;;;;4.00;1.80;;;;;;;40.95;15.40;100286.27;108149;1253;61698;-74
2023/08/09 11:02:58;;;;;;;2.30;1.40;;;;;;;41.20;15.67;100287.70;108116;1254;64400;-74
2023/08/09 11:05:27;;;;;;;3.80;1.90;;;;;;;41.62;15.65;100287.86;108117;1253;59793;-75
2023/08/09 11:07:56;;;;;;;2.30;1.40;;;;;;;42.12;14.97;100291.56;108133;1254;60277;-72
2023/08/09 11:10:30;;;;;;;3.90;2.10;;;;;;;42.34;14.66;100289.78;108081;1259;63629;-71
2023/08/09 11:13:01;;;;;;;4.40;1.90;;;;;;;42.49;14.67;100290.11;108139;1254;60298;-74
2023/08/09 11:15:28;;;;;;;4.30;1.50;;;;;;;42.77;14.73;100289.70;107960;1253;63826;-74
2023/08/09 11:17:56;;;;;;;4.30;1.90;;;;;;;42.89;14.77;100291.46;108082;1254;60521;-72
2023/08/09 11:20:23;;;;;;;5.10;1.60;;;;;;;42.77;14.43;100290.92;108108;1254;60444;-73
2023/08/09 11:22:55;;;;;;;2.90;1.50;;;;;;;42.36;14.20;100292.23;108109;1254;64995;-72
2023/08/09 11:25:24;;;;;;;3.70;1.60;;;;;;;41.79;14.50;100287.83;108153;1254;60506;-72